Alonsa, Canada
Current Conditions -  °F | °C
As of 8:00 AM on Friday 31 Oct 2014 (Local Time) from CYDN Reporting Station
Clear Clear  
Wind Chill: 19°   Ceiling: Unl
Heat Index: 19°   Visibility: 9mi
Dew Point: 16°   Wind: 3mph
Humidity: 86%   Direction: 240°WSW
Pressure: 30.47"   Gusts: NA
Location:  50.8°N, 98.98°W
Report Text: CYDN 311300Z AUTO 24003KT 220V330 9SM CLR M07/M09 A3047 RMK SLP339
Loading
Personal Weather Stations






























Interactive Weather Map
Tropical Storm Tracking
New forecast layout! Learn more

10-Day Weather Forecast

Advertisements
Track Severe Weather on mobile